CheckWX is a tool to help pilots better visualize weather data.  It is not intended as a substitute for an official pre-flight weather briefing.

12:19:15 UTC

KFSD TAF
Joe Foss Field Airport
Sioux Falls, South Dakota, USA
KFSD 241121Z 2412/2512 30007KT P6SM SCT150 FM241900 29010G17KT P6SM SCT060 FM250200 24005KT P6SM SCT060 FM250600 VRB04KT P6SM BKN200

Jun-24@
12:00 UTC

Jun-24 @ 12:00 UTC

Jun-24@
19:00 UTC

Jun-24 @ 19:00 UTC

KFSD 241121Z 2412/2512 30007KT P6SM SCT150
Wind
  • 300° at 7 KTS
Cloud Levels
  • Scattered at 15,000' AGL

Jun-24@
19:00 UTC

Jun-24 @ 19:00 UTC

Jun-25@
02:00 UTC

Jun-25 @ 02:00 UTC

FM241900 29010G17KT P6SM SCT060

From

From Standard forecast or significant change

Wind
  • 290° at 10 KTS
  • {Gusting to 17 KTS
Cloud Levels
  • Scattered at 6,000' AGL

Jun-25@
02:00 UTC

Jun-25 @ 02:00 UTC

Jun-25@
06:00 UTC

Jun-25 @ 06:00 UTC

FM250200 24005KT P6SM SCT060

From

From Standard forecast or significant change

Wind
  • 240° at 5 KTS
Cloud Levels
  • Scattered at 6,000' AGL

Jun-25@
06:00 UTC

Jun-25 @ 06:00 UTC

Jun-25@
12:00 UTC

Jun-25 @ 12:00 UTC

FM250600 VRB04KT P6SM BKN200

From

From Standard forecast or significant change

Wind
  • Variable at 4 KTS
Cloud Levels
  • Broken at 20,000' AGL